Time;durP1;ratioP1;P1;durP2;ratioP2;P2;SDS_P1;SDS_P2;PMS_P1;PMS_P2;Temp;Humidity;BMP_temperature;BMP_pressure;BME280_temperature;BME280_humidity;BME280_pressure;Samples;Min_cycle;Max_cycle;Signal;HPM_P1;HPM_P2
2023/06/18 00:01:47;;;;;;;16.50;9.97;;;17.20;99.90;;;;;;4207381;28;20234;-78
2023/06/18 00:03:50;;;;;;;13.30;9.87;;;17.20;99.90;;;;;;4199058;28;20523;-78
2023/06/18 00:05:53;;;;;;;13.00;9.47;;;17.20;99.90;;;;;;4198133;28;20703;-77
2023/06/18 00:07:55;;;;;;;13.67;8.97;;;17.20;99.90;;;;;;4190751;28;20218;-77
2023/06/18 00:09:58;;;;;;;13.10;9.53;;;17.10;99.90;;;;;;4201544;28;20222;-78
2023/06/18 00:12:00;;;;;;;12.83;9.40;;;17.10;99.90;;;;;;4194764;28;20252;-77
2023/06/18 00:14:02;;;;;;;12.57;8.63;;;17.10;99.90;;;;;;4197067;28;20782;-77
2023/06/18 00:16:04;;;;;;;14.83;9.30;;;17.00;99.90;;;;;;4193721;28;20207;-77
2023/06/18 00:18:06;;;;;;;12.70;9.20;;;17.00;99.90;;;;;;4197254;28;20308;-78
2023/06/18 00:20:10;;;;;;;13.27;9.20;;;17.00;99.90;;;;;;4190223;28;20206;-76
2023/06/18 00:22:14;;;;;;;11.50;8.37;;;17.00;99.90;;;;;;4193573;28;20646;-79
2023/06/18 00:24:16;;;;;;;12.70;8.43;;;16.90;99.90;;;;;;4198380;28;20286;-79
2023/06/18 00:26:18;;;;;;;11.67;8.30;;;16.90;99.90;;;;;;4195223;28;20256;-78
2023/06/18 00:28:21;;;;;;;11.67;8.30;;;16.90;99.90;;;;;;4192986;28;20238;-78
2023/06/18 00:30:23;;;;;;;12.00;8.73;;;16.80;99.90;;;;;;4196987;28;20210;-75
2023/06/18 00:32:25;;;;;;;12.17;8.30;;;16.80;99.90;;;;;;4203512;28;20634;-77
2023/06/18 00:34:32;;;;;;;12.07;8.73;;;16.70;99.90;;;;;;4196080;28;20229;-76
2023/06/18 00:36:38;;;;;;;12.53;8.47;;;16.70;99.90;;;;;;4192887;28;20205;-76
2023/06/18 00:38:46;;;;;;;11.17;8.37;;;16.70;99.90;;;;;;4195512;28;20265;-76
2023/06/18 00:40:48;;;;;;;10.87;8.13;;;16.70;99.90;;;;;;4196665;28;20215;-76
2023/06/18 00:42:52;;;;;;;10.73;8.23;;;16.60;99.90;;;;;;4199962;28;20317;-77
2023/06/18 00:44:54;;;;;;;12.23;8.00;;;16.60;99.90;;;;;;4199776;28;20214;-79
2023/06/18 00:46:59;;;;;;;11.73;8.83;;;16.60;99.90;;;;;;4195117;28;21120;-78
2023/06/18 00:49:03;;;;;;;10.73;8.17;;;16.60;99.90;;;;;;4201334;28;20324;-79
2023/06/18 00:51:05;;;;;;;12.23;8.70;;;16.60;99.90;;;;;;4195766;28;20283;-77
2023/06/18 00:53:12;;;;;;;12.60;9.07;;;16.50;99.90;;;;;;4193103;28;20765;-79
2023/06/18 00:55:16;;;;;;;13.10;9.00;;;16.50;99.90;;;;;;4195912;28;20225;-77
2023/06/18 00:57:21;;;;;;;14.23;9.90;;;16.50;99.90;;;;;;4196672;28;20655;-77
2023/06/18 00:59:22;;;;;;;15.40;10.60;;;16.50;99.90;;;;;;4194014;28;20608;-76
2023/06/18 01:01:24;;;;;;;18.90;12.50;;;16.50;99.90;;;;;;4194698;28;20239;-77
2023/06/18 01:03:26;;;;;;;18.83;12.93;;;16.40;99.90;;;;;;4195596;28;20283;-77
2023/06/18 01:05:31;;;;;;;18.57;12.73;;;16.40;99.90;;;;;;4197330;28;20243;-78
2023/06/18 01:07:37;;;;;;;18.47;12.63;;;16.40;99.90;;;;;;4195498;28;20213;-77
2023/06/18 01:09:41;;;;;;;19.13;11.87;;;16.30;99.90;;;;;;4192171;28;20267;-78
2023/06/18 01:11:45;;;;;;;15.40;10.67;;;16.30;99.90;;;;;;4204823;28;20230;-78
2023/06/18 01:13:48;;;;;;;19.37;11.17;;;16.30;99.90;;;;;;4194794;28;20207;-77
2023/06/18 01:15:50;;;;;;;17.87;11.93;;;16.20;99.90;;;;;;4255951;22;20216;-80
2023/06/18 01:17:53;;;;;;;15.73;11.60;;;16.20;99.90;;;;;;4172716;28;20610;-80
2023/06/18 01:20:00;;;;;;;19.57;12.87;;;16.20;99.90;;;;;;4174934;28;20312;-80
2023/06/18 01:22:11;;;;;;;20.57;14.07;;;16.20;99.90;;;;;;4173587;28;20211;-80
2023/06/18 01:24:20;;;;;;;19.03;13.30;;;16.20;99.90;;;;;;4174163;28;20211;-80
2023/06/18 01:26:26;;;;;;;20.83;13.67;;;16.10;99.90;;;;;;4162549;28;20262;-80
2023/06/18 01:28:29;;;;;;;19.97;13.47;;;16.10;99.90;;;;;;4151598;28;20269;-80
2023/06/18 01:30:31;;;;;;;19.50;13.23;;;16.10;99.90;;;;;;4155164;28;20218;-80
2023/06/18 01:32:33;;;;;;;19.33;12.40;;;16.10;99.90;;;;;;4154743;28;20232;-81
2023/06/18 01:34:38;;;;;;;15.70;11.77;;;16.00;99.90;;;;;;4152906;28;20216;-81
2023/06/18 01:36:47;;;;;;;17.00;11.33;;;16.00;99.90;;;;;;4155110;28;20322;-81
2023/06/18 01:38:57;;;;;;;17.07;10.70;;;16.00;99.90;;;;;;4158628;28;20218;-81
2023/06/18 01:41:07;;;;;;;14.63;10.27;;;15.90;99.90;;;;;;4154570;28;20235;-81
2023/06/18 01:43:13;;;;;;;13.47;9.67;;;15.90;99.90;;;;;;4156882;28;20233;-81
2023/06/18 01:45:21;;;;;;;14.67;10.27;;;15.90;99.90;;;;;;4152939;28;20204;-81
2023/06/18 01:47:26;;;;;;;13.53;9.83;;;15.90;99.90;;;;;;4153058;28;20746;-81
2023/06/18 01:49:29;;;;;;;14.00;9.63;;;15.90;99.90;;;;;;4152445;28;20731;-81
2023/06/18 01:51:33;;;;;;;16.10;10.67;;;15.80;99.90;;;;;;4153744;28;20212;-81
2023/06/18 01:53:38;;;;;;;14.67;10.33;;;15.80;99.90;;;;;;4149812;28;20235;-81
2023/06/18 01:55:41;;;;;;;14.53;9.77;;;15.80;99.90;;;;;;4153069;28;20211;-81
2023/06/18 01:57:43;;;;;;;15.60;10.03;;;15.80;99.90;;;;;;4153823;28;20223;-81
2023/06/18 01:59:46;;;;;;;13.53;9.13;;;15.70;99.90;;;;;;4156703;28;20220;-81
2023/06/18 02:01:48;;;;;;;15.50;10.37;;;15.70;99.90;;;;;;4148547;28;20211;-80
2023/06/18 02:03:50;;;;;;;13.17;9.60;;;15.70;99.90;;;;;;4151528;28;20223;-81
2023/06/18 02:05:52;;;;;;;13.93;9.17;;;15.70;99.90;;;;;;4150932;28;20235;-81
2023/06/18 02:07:54;;;;;;;12.83;8.93;;;15.70;99.90;;;;;;4148765;28;20255;-81
2023/06/18 02:09:56;;;;;;;11.43;9.00;;;15.70;99.90;;;;;;4147450;28;20210;-81
2023/06/18 02:11:58;;;;;;;14.53;9.80;;;15.60;99.90;;;;;;4147739;28;20212;-80
2023/06/18 02:14:01;;;;;;;15.07;9.77;;;15.60;99.90;;;;;;4150380;28;20269;-80
2023/06/18 02:16:04;;;;;;;14.43;9.53;;;15.60;99.90;;;;;;4150600;28;20990;-81
2023/06/18 02:18:06;;;;;;;14.00;10.67;;;15.60;99.90;;;;;;4146858;28;20223;-81
2023/06/18 02:20:10;;;;;;;14.53;10.37;;;15.60;99.90;;;;;;4147574;28;20234;-80
2023/06/18 02:22:12;;;;;;;15.40;10.10;;;15.60;99.90;;;;;;4146800;28;20217;-80
2023/06/18 02:24:16;;;;;;;12.50;9.37;;;15.60;99.90;;;;;;4150291;28;20221;-80
2023/06/18 02:26:18;;;;;;;13.13;9.73;;;15.60;99.90;;;;;;4148423;28;20314;-80
2023/06/18 02:28:20;;;;;;;14.40;10.23;;;15.50;99.90;;;;;;4146568;28;20226;-80
2023/06/18 02:30:22;;;;;;;14.63;9.17;;;15.50;99.90;;;;;;4145281;28;20215;-80
2023/06/18 02:32:28;;;;;;;13.67;9.47;;;15.40;99.90;;;;;;4147793;28;20315;-80
2023/06/18 02:34:31;;;;;;;13.33;10.03;;;15.50;99.90;;;;;;4147875;28;20203;-79
2023/06/18 02:36:37;;;;;;;14.63;10.03;;;15.40;99.90;;;;;;4147997;28;20255;-80
2023/06/18 02:38:39;;;;;;;12.67;9.67;;;15.40;99.90;;;;;;4149781;28;20220;-80
2023/06/18 02:40:41;;;;;;;14.47;10.00;;;15.40;99.90;;;;;;4148061;28;20220;-80
2023/06/18 02:42:47;;;;;;;14.40;10.30;;;15.40;99.90;;;;;;4150895;28;20205;-80
2023/06/18 02:44:49;;;;;;;13.93;9.90;;;15.40;99.90;;;;;;4143406;28;20233;-80
2023/06/18 02:46:51;;;;;;;15.20;10.73;;;15.40;99.90;;;;;;4145627;28;20232;-80
2023/06/18 02:48:54;;;;;;;18.63;11.07;;;15.40;99.90;;;;;;4144091;28;20298;-80
2023/06/18 02:50:56;;;;;;;16.40;11.27;;;15.40;99.90;;;;;;4146196;28;20259;-80
2023/06/18 02:52:58;;;;;;;15.63;10.67;;;15.40;99.90;;;;;;4148154;28;20285;-79
2023/06/18 02:55:00;;;;;;;14.63;10.60;;;15.30;99.90;;;;;;4150155;28;20282;-80
2023/06/18 02:57:02;;;;;;;13.40;10.63;;;15.30;99.90;;;;;;4144154;28;20326;-81
2023/06/18 02:59:04;;;;;;;16.07;10.67;;;15.20;99.90;;;;;;4140345;28;20335;-80
2023/06/18 03:01:06;;;;;;;18.37;10.87;;;15.20;99.90;;;;;;4141799;28;20240;-80
2023/06/18 03:03:08;;;;;;;13.43;9.73;;;15.20;99.90;;;;;;4143803;28;20222;-80
2023/06/18 03:05:11;;;;;;;14.63;10.07;;;15.20;99.90;;;;;;4144287;28;20216;-80
2023/06/18 03:07:13;;;;;;;13.83;9.60;;;15.20;99.90;;;;;;4154389;28;20249;-80
2023/06/18 03:09:15;;;;;;;14.30;9.20;;;15.20;99.90;;;;;;4160456;28;20217;-80
2023/06/18 03:11:17;;;;;;;12.93;9.40;;;15.10;99.90;;;;;;4155498;28;20360;-80
2023/06/18 03:13:22;;;;;;;13.00;9.37;;;15.10;99.90;;;;;;4155993;28;20268;-80
2023/06/18 03:15:24;;;;;;;13.13;9.33;;;15.10;99.90;;;;;;4156797;28;20247;-80
2023/06/18 03:17:26;;;;;;;13.27;9.33;;;15.10;99.90;;;;;;4151189;28;20721;-80
2023/06/18 03:19:28;;;;;;;12.33;9.43;;;15.00;99.90;;;;;;4142990;28;20229;-80
2023/06/18 03:21:31;;;;;;;13.63;9.43;;;15.00;99.90;;;;;;4156122;28;20229;-80
2023/06/18 03:23:33;;;;;;;14.50;9.47;;;15.00;99.90;;;;;;4153799;28;20676;-80
2023/06/18 03:25:35;;;;;;;12.03;9.93;;;15.00;99.90;;;;;;4149587;28;20274;-80
2023/06/18 03:27:37;;;;;;;13.70;9.80;;;15.00;99.90;;;;;;4146873;28;20214;-80
2023/06/18 03:29:38;;;;;;;14.33;11.10;;;15.00;99.90;;;;;;4151439;28;20277;-80
2023/06/18 03:31:40;;;;;;;15.60;10.73;;;15.10;99.90;;;;;;4144947;28;20218;-80
2023/06/18 03:33:42;;;;;;;15.40;10.67;;;15.10;99.90;;;;;;4144850;28;20210;-80
2023/06/18 03:35:46;;;;;;;15.13;10.07;;;15.10;99.90;;;;;;4148087;28;20215;-80
2023/06/18 03:37:50;;;;;;;15.03;10.13;;;15.00;99.90;;;;;;4149697;28;20229;-80
2023/06/18 03:39:52;;;;;;;14.87;10.23;;;15.00;99.90;;;;;;4147481;28;20930;-80
2023/06/18 03:41:54;;;;;;;16.13;10.63;;;15.00;99.90;;;;;;4152973;28;20223;-80
2023/06/18 03:43:55;;;;;;;15.17;10.40;;;15.00;99.90;;;;;;4148408;28;20480;-80
2023/06/18 03:45:58;;;;;;;15.87;10.67;;;15.00;99.90;;;;;;4150356;28;20246;-80
2023/06/18 03:48:00;;;;;;;15.10;9.77;;;15.00;99.90;;;;;;4146951;28;20217;-80
2023/06/18 03:50:02;;;;;;;15.67;9.93;;;15.00;99.90;;;;;;4147492;28;20236;-80
2023/06/18 03:52:05;;;;;;;15.00;10.50;;;15.00;99.90;;;;;;4145870;28;20246;-80
2023/06/18 03:54:08;;;;;;;15.97;10.57;;;14.90;99.90;;;;;;4140302;28;20240;-81
2023/06/18 03:56:10;;;;;;;15.17;10.53;;;14.90;99.90;;;;;;4132881;28;20241;-81
2023/06/18 03:58:12;;;;;;;14.17;9.93;;;14.90;99.90;;;;;;4148072;28;20845;-81
2023/06/18 04:00:14;;;;;;;14.90;9.40;;;14.90;99.90;;;;;;4144785;28;20244;-81
2023/06/18 04:02:16;;;;;;;15.03;9.67;;;14.90;99.90;;;;;;4149133;28;20671;-81
2023/06/18 04:04:18;;;;;;;13.53;9.93;;;14.90;99.90;;;;;;4136679;28;20225;-80
2023/06/18 04:06:20;;;;;;;14.37;10.63;;;14.90;99.90;;;;;;4151392;28;20772;-81
2023/06/18 04:08:22;;;;;;;14.63;10.80;;;14.90;99.90;;;;;;4149669;28;20207;-81
2023/06/18 04:10:26;;;;;;;18.60;11.93;;;14.90;99.90;;;;;;4152420;28;20211;-80
2023/06/18 04:12:28;;;;;;;16.83;11.50;;;14.90;99.90;;;;;;4145799;28;20211;-81
2023/06/18 04:14:29;;;;;;;14.20;11.00;;;14.90;99.90;;;;;;4142859;28;20211;-81
2023/06/18 04:16:31;;;;;;;15.90;11.03;;;14.90;99.90;;;;;;4136163;28;20240;-81
2023/06/18 04:18:33;;;;;;;16.27;11.70;;;14.90;99.90;;;;;;4144107;28;20210;-81
2023/06/18 04:20:35;;;;;;;16.67;11.53;;;14.90;99.90;;;;;;4147614;28;20238;-81
2023/06/18 04:22:37;;;;;;;15.17;11.10;;;14.80;99.90;;;;;;4145645;28;20210;-81
2023/06/18 04:24:39;;;;;;;16.87;11.53;;;14.80;99.90;;;;;;4149031;28;20618;-81
2023/06/18 04:26:43;;;;;;;16.73;12.53;;;14.80;99.90;;;;;;4161221;28;20257;-81
2023/06/18 04:28:45;;;;;;;17.83;12.57;;;14.80;99.90;;;;;;4150980;28;20229;-81
2023/06/18 04:30:47;;;;;;;15.47;11.83;;;14.80;99.90;;;;;;4145601;28;20202;-81
2023/06/18 04:32:48;;;;;;;16.60;11.37;;;14.80;99.90;;;;;;4142234;28;20671;-81
2023/06/18 04:34:50;;;;;;;16.83;11.83;;;14.80;99.90;;;;;;4144866;28;20218;-81
2023/06/18 04:36:52;;;;;;;16.63;11.03;;;14.70;99.90;;;;;;4141417;28;20262;-82
2023/06/18 04:38:54;;;;;;;16.57;11.17;;;14.70;99.90;;;;;;4146164;28;20373;-81
2023/06/18 04:40:56;;;;;;;14.77;10.23;;;14.70;99.90;;;;;;4148721;28;20222;-81
2023/06/18 04:43:00;;;;;;;17.07;11.23;;;14.80;99.90;;;;;;4147018;28;20242;-81
2023/06/18 04:45:02;;;;;;;15.40;10.43;;;14.80;99.90;;;;;;4140262;28;20256;-81
2023/06/18 04:47:04;;;;;;;14.57;9.97;;;14.70;99.90;;;;;;4141006;28;20236;-81
2023/06/18 04:49:07;;;;;;;16.07;11.77;;;14.80;99.90;;;;;;4154412;28;20217;-81
2023/06/18 04:51:09;;;;;;;14.17;10.40;;;14.80;99.90;;;;;;4148689;28;20331;-81
2023/06/18 04:53:12;;;;;;;15.93;10.27;;;14.80;99.90;;;;;;4148168;28;20214;-81
2023/06/18 04:55:14;;;;;;;13.63;10.07;;;14.80;99.90;;;;;;4141890;28;20225;-81
2023/06/18 04:57:17;;;;;;;14.63;10.30;;;14.80;99.90;;;;;;4142230;28;20288;-81
2023/06/18 04:59:20;;;;;;;15.93;10.10;;;14.80;99.90;;;;;;4148502;28;20623;-81
2023/06/18 05:01:22;;;;;;;13.97;10.60;;;14.90;99.90;;;;;;4140263;28;20215;-81
2023/06/18 05:03:24;;;;;;;14.33;10.43;;;14.90;99.90;;;;;;4146335;28;20257;-81
2023/06/18 05:05:28;;;;;;;15.97;11.10;;;14.90;99.90;;;;;;4143087;28;20262;-81
2023/06/18 05:07:30;;;;;;;14.97;10.37;;;14.90;99.90;;;;;;4147493;28;20735;-81
2023/06/18 05:09:32;;;;;;;15.90;9.77;;;15.00;99.90;;;;;;4140301;28;20216;-81
2023/06/18 05:11:34;;;;;;;14.10;9.83;;;15.00;99.90;;;;;;4151090;28;20250;-81
2023/06/18 05:13:36;;;;;;;12.23;9.03;;;15.00;99.90;;;;;;4149470;28;20264;-81
2023/06/18 05:15:39;;;;;;;15.33;10.07;;;15.00;99.90;;;;;;4146348;28;20246;-81
2023/06/18 05:17:41;;;;;;;14.50;10.00;;;15.00;99.90;;;;;;4142494;28;20229;-81
2023/06/18 05:19:43;;;;;;;14.70;10.50;;;15.10;99.90;;;;;;4151737;28;20261;-81
2023/06/18 05:21:45;;;;;;;15.00;10.77;;;15.20;99.90;;;;;;4152495;28;20658;-81
2023/06/18 05:23:47;;;;;;;13.70;9.77;;;15.20;99.90;;;;;;4153480;28;20217;-81
2023/06/18 05:25:49;;;;;;;14.33;10.13;;;15.20;99.90;;;;;;4150076;28;20220;-81
2023/06/18 05:27:51;;;;;;;17.37;10.93;;;15.20;99.90;;;;;;4154855;28;20818;-81
2023/06/18 05:29:54;;;;;;;14.97;10.67;;;15.30;99.90;;;;;;4152135;28;20565;-82
2023/06/18 05:31:57;;;;;;;12.70;9.77;;;15.30;99.90;;;;;;4148467;28;20215;-81
2023/06/18 05:33:59;;;;;;;13.43;10.00;;;15.30;99.90;;;;;;4147909;28;20311;-81
2023/06/18 05:36:01;;;;;;;13.60;9.57;;;15.40;99.90;;;;;;4151331;28;20234;-81
2023/06/18 05:38:03;;;;;;;12.20;8.70;;;15.40;99.90;;;;;;4149453;28;20238;-81
2023/06/18 05:40:07;;;;;;;12.50;9.17;;;15.40;99.90;;;;;;4142581;28;20270;-81
2023/06/18 05:42:09;;;;;;;12.83;9.13;;;15.40;99.90;;;;;;4149621;28;20226;-81
2023/06/18 05:44:11;;;;;;;12.77;9.77;;;15.50;99.90;;;;;;4149282;28;20218;-81
2023/06/18 05:46:13;;;;;;;15.50;9.73;;;15.50;99.90;;;;;;4145839;28;20231;-81
2023/06/18 05:48:16;;;;;;;13.20;10.03;;;15.60;99.90;;;;;;4146580;28;20207;-82
2023/06/18 05:50:18;;;;;;;16.07;10.80;;;15.60;99.90;;;;;;4149506;28;20315;-82
2023/06/18 05:52:20;;;;;;;18.00;11.77;;;15.60;99.90;;;;;;4150236;28;20207;-82
2023/06/18 05:54:22;;;;;;;16.63;11.53;;;15.70;99.90;;;;;;4141135;28;20212;-82
2023/06/18 05:56:27;;;;;;;14.63;10.30;;;15.70;99.90;;;;;;4148165;28;20693;-82
2023/06/18 05:58:29;;;;;;;14.67;10.57;;;15.80;99.90;;;;;;4141581;28;20214;-82
2023/06/18 06:00:31;;;;;;;13.63;9.73;;;15.80;99.90;;;;;;4141048;28;20267;-82
2023/06/18 06:02:33;;;;;;;14.20;10.23;;;15.90;99.90;;;;;;4140877;28;20763;-82
2023/06/18 06:04:36;;;;;;;15.70;10.50;;;16.00;99.90;;;;;;4142407;28;20267;-81
2023/06/18 06:06:38;;;;;;;14.37;10.63;;;16.00;99.90;;;;;;4143973;28;20243;-81
2023/06/18 06:08:40;;;;;;;14.47;10.33;;;16.10;99.90;;;;;;4139280;28;20244;-81
2023/06/18 06:10:43;;;;;;;17.47;11.57;;;16.10;99.90;;;;;;4148530;28;20235;-82
2023/06/18 06:12:45;;;;;;;17.80;11.93;;;16.20;99.90;;;;;;4137838;28;20216;-82
2023/06/18 06:14:47;;;;;;;15.47;10.87;;;16.20;99.90;;;;;;4146245;28;20284;-81
2023/06/18 06:16:51;;;;;;;13.93;10.13;;;16.30;99.90;;;;;;4141517;28;20727;-81
2023/06/18 06:18:56;;;;;;;12.50;9.37;;;16.30;99.90;;;;;;4144704;28;20294;-82
2023/06/18 06:21:00;;;;;;;14.30;10.83;;;16.40;99.90;;;;;;4147478;28;20246;-82
2023/06/18 06:23:02;;;;;;;15.40;10.77;;;16.50;99.90;;;;;;4148657;28;20648;-82
2023/06/18 06:25:04;;;;;;;14.17;9.90;;;16.50;99.90;;;;;;4140721;28;20284;-82
2023/06/18 06:27:06;;;;;;;16.07;10.23;;;16.60;99.90;;;;;;4141985;28;20268;-82
2023/06/18 06:29:08;;;;;;;15.03;10.00;;;16.60;99.90;;;;;;4147878;28;20302;-81
2023/06/18 06:31:10;;;;;;;15.53;10.03;;;16.70;99.90;;;;;;4142754;28;20303;-82
2023/06/18 06:33:12;;;;;;;15.30;10.77;;;16.80;99.90;;;;;;4141143;28;20231;-82
2023/06/18 06:35:14;;;;;;;15.30;10.63;;;16.80;99.90;;;;;;4145373;28;20717;-82
2023/06/18 06:37:17;;;;;;;12.70;9.50;;;16.90;99.90;;;;;;4144408;28;20591;-82
2023/06/18 06:39:19;;;;;;;13.47;10.27;;;17.00;99.90;;;;;;4144663;28;20212;-81
2023/06/18 06:41:22;;;;;;;15.23;10.13;;;17.00;99.90;;;;;;4142634;28;20635;-81
2023/06/18 06:43:24;;;;;;;12.67;9.37;;;17.10;99.90;;;;;;4149280;28;20210;-83
2023/06/18 06:45:27;;;;;;;15.80;9.73;;;17.20;99.90;;;;;;4142106;28;20266;-82
2023/06/18 06:47:29;;;;;;;12.13;8.90;;;17.30;99.90;;;;;;4153713;28;20831;-82
2023/06/18 06:49:31;;;;;;;15.90;9.70;;;17.30;99.90;;;;;;4150940;28;20250;-82
2023/06/18 06:51:33;;;;;;;12.17;9.27;;;17.40;99.90;;;;;;4150434;28;20263;-82
2023/06/18 06:53:36;;;;;;;12.03;9.10;;;17.50;99.90;;;;;;4136357;28;20208;-82
2023/06/18 06:55:38;;;;;;;13.33;9.73;;;17.60;99.90;;;;;;4139630;28;20213;-82
2023/06/18 06:57:40;;;;;;;13.00;9.40;;;17.70;99.90;;;;;;4140730;28;20299;-82
2023/06/18 06:59:42;;;;;;;11.33;8.80;;;17.80;99.90;;;;;;4139741;28;20226;-82
2023/06/18 07:01:44;;;;;;;11.50;8.27;;;17.80;99.90;;;;;;4146440;28;20229;-81
2023/06/18 07:03:46;;;;;;;12.07;8.67;;;17.80;99.90;;;;;;4132909;28;20222;-83
2023/06/18 07:05:48;;;;;;;12.70;9.57;;;18.10;99.90;;;;;;4139632;28;20291;-82
2023/06/18 07:07:50;;;;;;;13.30;9.67;;;18.00;99.90;;;;;;4143865;28;20209;-81
2023/06/18 07:09:53;;;;;;;13.83;8.87;;;18.10;99.90;;;;;;4141362;28;20227;-82
2023/06/18 07:11:55;;;;;;;13.47;9.20;;;18.10;99.90;;;;;;4142902;28;20206;-82
2023/06/18 07:13:57;;;;;;;10.70;7.87;;;18.20;99.90;;;;;;4140027;28;20225;-81
2023/06/18 07:15:59;;;;;;;11.57;8.10;;;18.30;99.90;;;;;;4148433;28;20270;-81
2023/06/18 07:18:01;;;;;;;11.80;8.27;;;18.30;99.90;;;;;;4142950;28;20267;-80
2023/06/18 07:20:04;;;;;;;10.60;8.10;;;18.40;99.90;;;;;;4144666;28;20268;-81
2023/06/18 07:22:06;;;;;;;10.57;8.27;;;18.50;99.90;;;;;;4142439;28;20233;-81
2023/06/18 07:24:08;;;;;;;14.10;9.73;;;18.50;99.90;;;;;;4137594;28;20218;-81
2023/06/18 07:26:11;;;;;;;10.60;8.10;;;18.60;99.90;;;;;;4146328;28;20694;-81
2023/06/18 07:28:13;;;;;;;12.93;8.90;;;18.60;99.90;;;;;;4143087;28;20239;-81
2023/06/18 07:30:15;;;;;;;10.87;8.27;;;18.70;99.90;;;;;;4139503;28;20219;-81
2023/06/18 07:32:17;;;;;;;9.87;7.97;;;18.80;99.90;;;;;;4148037;28;20687;-81
2023/06/18 07:34:19;;;;;;;13.53;8.23;;;18.90;99.90;;;;;;4150340;28;20591;-82
2023/06/18 07:36:21;;;;;;;10.53;8.23;;;18.90;99.90;;;;;;4153858;28;20382;-81
2023/06/18 07:38:23;;;;;;;11.00;8.67;;;19.00;99.90;;;;;;4147028;28;20304;-81
2023/06/18 07:40:28;;;;;;;12.17;9.23;;;19.00;99.90;;;;;;4145047;28;20227;-82
2023/06/18 07:42:31;;;;;;;14.57;8.90;;;19.10;99.90;;;;;;4145476;28;20227;-81
2023/06/18 07:44:33;;;;;;;10.73;8.00;;;19.20;99.90;;;;;;4145816;28;20212;-81
2023/06/18 07:46:35;;;;;;;12.33;8.63;;;19.30;99.90;;;;;;4151707;28;20231;-81
2023/06/18 07:48:37;;;;;;;10.90;8.07;;;19.30;99.90;;;;;;4154160;28;20215;-82
2023/06/18 07:50:40;;;;;;;11.17;8.23;;;19.40;99.90;;;;;;4147882;28;20218;-83
2023/06/18 07:52:42;;;;;;;9.50;7.80;;;19.60;99.90;;;;;;4150805;28;20242;-81
2023/06/18 07:54:44;;;;;;;10.97;8.53;;;19.60;99.90;;;;;;4144361;28;20218;-81
2023/06/18 07:56:46;;;;;;;10.80;8.30;;;19.70;99.90;;;;;;4151246;28;20247;-82
2023/06/18 07:58:49;;;;;;;10.20;7.73;;;19.80;99.90;;;;;;4145546;28;20860;-82
2023/06/18 08:00:51;;;;;;;10.30;7.10;;;19.80;99.90;;;;;;4142288;28;20261;-82
2023/06/18 08:02:53;;;;;;;11.73;8.10;;;19.80;99.90;;;;;;4142508;28;20311;-83
2023/06/18 08:04:55;;;;;;;14.13;9.37;;;19.90;99.90;;;;;;4141498;28;20207;-83
2023/06/18 08:06:57;;;;;;;12.23;9.37;;;20.00;99.90;;;;;;4150729;28;20239;-83
2023/06/18 08:08:59;;;;;;;12.20;8.77;;;20.00;99.90;;;;;;4140414;28;20212;-82
2023/06/18 08:11:01;;;;;;;11.70;8.90;;;20.20;99.90;;;;;;4147061;28;20212;-85
2023/06/18 08:13:03;;;;;;;10.80;7.87;;;20.20;99.90;;;;;;4141102;28;20240;-82
2023/06/18 08:15:08;;;;;;;9.93;7.50;;;20.30;99.90;;;;;;4145142;28;20249;-81
2023/06/18 08:17:10;;;;;;;12.23;8.50;;;20.40;99.90;;;;;;4146674;28;20322;-82
2023/06/18 08:19:12;;;;;;;11.37;8.27;;;20.40;99.90;;;;;;4145339;28;20238;-82
2023/06/18 08:21:14;;;;;;;10.87;8.03;;;20.50;99.90;;;;;;4145507;28;20246;-80
2023/06/18 08:23:16;;;;;;;13.67;8.33;;;20.60;99.90;;;;;;4145978;28;20242;-81
2023/06/18 08:25:18;;;;;;;12.80;7.53;;;20.70;99.90;;;;;;4146480;28;20219;-79
2023/06/18 08:27:20;;;;;;;12.57;7.90;;;20.70;99.90;;;;;;4148111;28;20315;-79
2023/06/18 08:29:22;;;;;;;9.17;7.37;;;20.80;99.90;;;;;;4151158;28;20275;-80
2023/06/18 08:31:26;;;;;;;11.27;7.97;;;20.80;99.90;;;;;;4145222;28;20732;-80
2023/06/18 08:33:28;;;;;;;12.10;7.67;;;20.90;99.90;;;;;;4150094;28;20219;-81
2023/06/18 08:35:30;;;;;;;11.00;7.80;;;21.00;99.90;;;;;;4149239;28;20215;-81
2023/06/18 08:37:31;;;;;;;10.17;7.93;;;21.10;99.90;;;;;;4148560;28;20207;-80
2023/06/18 08:39:33;;;;;;;11.17;7.83;;;21.20;99.90;;;;;;4151338;28;20224;-81
2023/06/18 08:41:35;;;;;;;12.97;8.20;;;21.20;99.90;;;;;;4146529;28;20255;-80
2023/06/18 08:43:38;;;;;;;11.00;8.23;;;21.30;99.90;;;;;;4147810;28;20267;-80
2023/06/18 08:45:40;;;;;;;11.80;8.20;;;21.40;99.90;;;;;;4138867;28;20559;-80
2023/06/18 08:47:48;;;;;;;11.37;8.43;;;21.50;99.90;;;;;;4140262;28;20312;-80
2023/06/18 08:49:52;;;;;;;10.83;7.77;;;21.50;99.90;;;;;;4142273;28;20203;-81
2023/06/18 08:51:55;;;;;;;11.47;7.60;;;21.60;99.90;;;;;;4146556;28;20208;-80
2023/06/18 08:54:05;;;;;;;11.13;8.00;;;21.70;99.90;;;;;;4142556;28;20224;-80
2023/06/18 08:56:09;;;;;;;12.67;8.10;;;21.80;99.90;;;;;;4142014;28;20283;-81
2023/06/18 08:58:16;;;;;;;9.57;7.37;;;21.90;99.90;;;;;;4142731;28;20250;-82
2023/06/18 09:00:19;;;;;;;11.37;7.47;;;21.90;99.90;;;;;;4147468;28;20199;-82
2023/06/18 09:02:22;;;;;;;10.87;7.20;;;22.00;99.90;;;;;;4144985;28;20230;-82
2023/06/18 09:04:27;;;;;;;10.13;7.50;;;22.10;99.90;;;;;;4138685;28;20213;-81
2023/06/18 09:06:29;;;;;;;8.60;6.83;;;22.20;99.90;;;;;;4142424;28;20788;-81
2023/06/18 09:08:32;;;;;;;10.90;7.87;;;22.20;99.90;;;;;;4146704;28;20292;-81
2023/06/18 09:10:34;;;;;;;10.00;7.50;;;22.30;99.90;;;;;;4145153;28;20664;-81
2023/06/18 09:12:36;;;;;;;9.83;7.40;;;22.40;99.90;;;;;;4151373;28;20651;-81
2023/06/18 09:14:38;;;;;;;10.03;7.20;;;22.50;99.90;;;;;;4143982;28;20247;-81
2023/06/18 09:16:41;;;;;;;11.20;8.07;;;22.50;99.90;;;;;;4140836;28;20321;-81
2023/06/18 09:18:43;;;;;;;11.03;8.07;;;22.60;99.90;;;;;;4144451;28;20687;-80
2023/06/18 09:20:47;;;;;;;10.17;7.63;;;22.70;99.90;;;;;;4139755;28;20312;-81
2023/06/18 09:22:50;;;;;;;10.03;6.97;;;22.70;99.90;;;;;;4143232;28;20261;-79
2023/06/18 09:24:57;;;;;;;11.67;6.90;;;22.80;99.90;;;;;;4145091;28;20219;-80
2023/06/18 09:27:02;;;;;;;10.13;7.40;;;22.90;99.90;;;;;;4142047;28;20249;-80
2023/06/18 09:29:06;;;;;;;9.57;7.87;;;23.00;99.90;;;;;;4141766;28;20221;-80
2023/06/18 09:31:07;;;;;;;9.43;7.67;;;23.10;99.90;;;;;;4145959;28;20215;-81
2023/06/18 09:33:12;;;;;;;10.90;8.00;;;23.20;99.90;;;;;;4140019;28;20297;-80
2023/06/18 09:35:15;;;;;;;11.57;7.37;;;23.30;99.90;;;;;;4143078;28;20218;-80
2023/06/18 09:37:20;;;;;;;9.43;7.07;;;23.50;99.90;;;;;;4142741;28;20228;-79
2023/06/18 09:39:25;;;;;;;8.47;6.97;;;23.60;99.90;;;;;;4142160;28;20208;-79
2023/06/18 09:41:28;;;;;;;10.67;7.50;;;23.70;99.90;;;;;;4143445;28;20227;-79
2023/06/18 09:43:36;;;;;;;10.30;7.73;;;23.70;99.90;;;;;;4144442;28;20215;-80
2023/06/18 09:45:39;;;;;;;10.60;7.40;;;23.80;99.90;;;;;;4142822;28;20215;-77
2023/06/18 09:47:44;;;;;;;8.83;6.97;;;23.80;99.90;;;;;;4137755;28;20302;-76
2023/06/18 09:49:46;;;;;;;8.50;6.83;;;23.90;99.90;;;;;;4140645;28;20204;-78
2023/06/18 09:51:51;;;;;;;11.20;6.43;;;24.00;99.90;;;;;;4143915;28;20295;-79
2023/06/18 09:53:59;;;;;;;10.03;6.43;;;24.10;99.90;;;;;;4143267;28;20216;-79
2023/06/18 09:56:12;;;;;;;9.63;5.87;;;24.20;96.60;;;;;;4138654;28;20795;-81
2023/06/18 09:58:14;;;;;;;8.20;6.17;;;24.30;96.90;;;;;;4140690;28;20234;-77
2023/06/18 10:00:17;;;;;;;10.43;5.90;;;24.50;93.50;;;;;;4136599;28;20666;-81
2023/06/18 10:02:25;;;;;;;7.33;5.50;;;24.60;90.20;;;;;;4138148;28;20606;-80
2023/06/18 10:04:27;;;;;;;10.80;6.03;;;24.80;86.80;;;;;;4144784;28;20316;-81
2023/06/18 10:06:30;;;;;;;7.13;5.87;;;24.90;84.30;;;;;;4143775;28;20239;-83
2023/06/18 10:08:33;;;;;;;10.27;6.87;;;25.00;83.80;;;;;;4136447;28;20216;-79
2023/06/18 10:10:38;;;;;;;9.53;6.47;;;25.10;88.10;;;;;;4144077;28;20250;-82
2023/06/18 10:12:43;;;;;;;8.33;5.90;;;25.10;87.20;;;;;;4149114;28;20228;-80
2023/06/18 10:14:46;;;;;;;8.07;6.27;;;25.10;78.70;;;;;;4141610;28;20307;-82
2023/06/18 10:16:53;;;;;;;7.90;6.27;;;25.10;80.30;;;;;;4143115;28;20232;-79
2023/06/18 10:19:01;;;;;;;6.97;5.90;;;25.10;75.00;;;;;;4138625;28;20208;-78
2023/06/18 10:21:05;;;;;;;9.03;6.30;;;25.20;73.10;;;;;;4142539;28;20211;-76
2023/06/18 10:23:08;;;;;;;8.93;6.10;;;25.20;73.00;;;;;;4138747;28;20348;-77
2023/06/18 10:25:11;;;;;;;7.20;5.80;;;25.30;75.80;;;;;;4135993;28;20236;-76
2023/06/18 10:27:16;;;;;;;8.10;5.80;;;25.40;74.00;;;;;;4138612;28;20673;-75
2023/06/18 10:29:18;;;;;;;7.60;5.90;;;25.50;72.30;;;;;;4138823;28;20315;-75